sensor_id;sensor_type;location;lat;lon;timestamp;P1;durP1;ratioP1;P2;durP2;ratioP2
4084;SDS011;2057;50.858;6.572;2022-08-19T00:00:25;14.33;;;12.43;;
4084;SDS011;2057;50.858;6.572;2022-08-19T00:02:50;14.30;;;12.80;;
4084;SDS011;2057;50.858;6.572;2022-08-19T00:05:16;27.73;;;12.97;;
4084;SDS011;2057;50.858;6.572;2022-08-19T00:07:42;17.10;;;14.60;;
4084;SDS011;2057;50.858;6.572;2022-08-19T00:10:08;21.33;;;13.00;;
4084;SDS011;2057;50.858;6.572;2022-08-19T00:12:35;15.77;;;13.20;;
4084;SDS011;2057;50.858;6.572;2022-08-19T00:15:03;15.93;;;13.60;;
4084;SDS011;2057;50.858;6.572;2022-08-19T00:17:29;19.20;;;15.77;;
4084;SDS011;2057;50.858;6.572;2022-08-19T00:19:55;18.37;;;14.47;;
4084;SDS011;2057;50.858;6.572;2022-08-19T00:22:20;17.90;;;15.77;;
4084;SDS011;2057;50.858;6.572;2022-08-19T00:24:46;18.83;;;14.97;;
4084;SDS011;2057;50.858;6.572;2022-08-19T00:27:12;17.10;;;15.37;;
4084;SDS011;2057;50.858;6.572;2022-08-19T00:29:38;23.00;;;16.60;;
4084;SDS011;2057;50.858;6.572;2022-08-19T00:32:04;20.70;;;18.60;;
4084;SDS011;2057;50.858;6.572;2022-08-19T00:34:30;18.77;;;16.77;;
4084;SDS011;2057;50.858;6.572;2022-08-19T00:36:55;21.80;;;18.57;;
4084;SDS011;2057;50.858;6.572;2022-08-19T00:39:22;19.03;;;15.40;;
4084;SDS011;2057;50.858;6.572;2022-08-19T00:41:49;24.70;;;18.67;;
4084;SDS011;2057;50.858;6.572;2022-08-19T00:46:46;20.73;;;18.27;;
4084;SDS011;2057;50.858;6.572;2022-08-19T00:49:18;27.90;;;18.67;;
4084;SDS011;2057;50.858;6.572;2022-08-19T00:51:48;45.67;;;19.17;;
4084;SDS011;2057;50.858;6.572;2022-08-19T00:54:16;19.93;;;17.17;;
4084;SDS011;2057;50.858;6.572;2022-08-19T00:56:43;26.20;;;20.37;;
4084;SDS011;2057;50.858;6.572;2022-08-19T00:59:09;22.07;;;19.73;;
4084;SDS011;2057;50.858;6.572;2022-08-19T01:01:36;27.07;;;20.93;;
4084;SDS011;2057;50.858;6.572;2022-08-19T01:04:02;26.67;;;20.20;;
4084;SDS011;2057;50.858;6.572;2022-08-19T01:06:28;30.07;;;21.80;;
4084;SDS011;2057;50.858;6.572;2022-08-19T01:08:55;24.40;;;21.37;;
4084;SDS011;2057;50.858;6.572;2022-08-19T01:11:21;31.63;;;23.10;;
4084;SDS011;2057;50.858;6.572;2022-08-19T01:13:46;25.23;;;22.00;;
4084;SDS011;2057;50.858;6.572;2022-08-19T01:16:12;26.27;;;23.47;;
4084;SDS011;2057;50.858;6.572;2022-08-19T01:18:39;32.00;;;20.87;;
4084;SDS011;2057;50.858;6.572;2022-08-19T01:21:11;26.07;;;22.70;;
4084;SDS011;2057;50.858;6.572;2022-08-19T01:23:43;25.73;;;23.13;;
4084;SDS011;2057;50.858;6.572;2022-08-19T01:26:10;28.97;;;23.20;;
4084;SDS011;2057;50.858;6.572;2022-08-19T01:28:39;29.97;;;23.43;;
4084;SDS011;2057;50.858;6.572;2022-08-19T01:31:07;26.10;;;23.40;;
4084;SDS011;2057;50.858;6.572;2022-08-19T01:33:36;31.23;;;25.37;;
4084;SDS011;2057;50.858;6.572;2022-08-19T01:36:07;31.57;;;28.07;;
4084;SDS011;2057;50.858;6.572;2022-08-19T01:38:36;28.83;;;25.93;;
4084;SDS011;2057;50.858;6.572;2022-08-19T01:41:03;28.90;;;25.93;;
4084;SDS011;2057;50.858;6.572;2022-08-19T01:43:29;33.53;;;25.13;;
4084;SDS011;2057;50.858;6.572;2022-08-19T01:45:55;37.20;;;27.70;;
4084;SDS011;2057;50.858;6.572;2022-08-19T01:48:20;35.40;;;28.43;;
4084;SDS011;2057;50.858;6.572;2022-08-19T01:50:45;34.10;;;27.33;;
4084;SDS011;2057;50.858;6.572;2022-08-19T01:53:12;30.40;;;26.47;;
4084;SDS011;2057;50.858;6.572;2022-08-19T01:55:38;34.27;;;26.43;;
4084;SDS011;2057;50.858;6.572;2022-08-19T01:58:06;38.83;;;29.47;;
4084;SDS011;2057;50.858;6.572;2022-08-19T02:00:36;31.17;;;27.97;;
4084;SDS011;2057;50.858;6.572;2022-08-19T02:03:02;30.20;;;27.00;;
4084;SDS011;2057;50.858;6.572;2022-08-19T02:05:27;32.10;;;28.60;;
4084;SDS011;2057;50.858;6.572;2022-08-19T02:07:54;32.50;;;27.33;;
4084;SDS011;2057;50.858;6.572;2022-08-19T02:10:21;36.90;;;29.53;;
4084;SDS011;2057;50.858;6.572;2022-08-19T02:12:47;33.57;;;29.30;;
4084;SDS011;2057;50.858;6.572;2022-08-19T02:15:14;35.20;;;30.37;;
4084;SDS011;2057;50.858;6.572;2022-08-19T02:17:41;33.33;;;28.77;;
4084;SDS011;2057;50.858;6.572;2022-08-19T02:20:07;34.93;;;31.13;;
4084;SDS011;2057;50.858;6.572;2022-08-19T02:22:33;34.07;;;30.43;;
4084;SDS011;2057;50.858;6.572;2022-08-19T02:24:58;33.57;;;30.07;;
4084;SDS011;2057;50.858;6.572;2022-08-19T02:27:24;48.70;;;33.27;;
4084;SDS011;2057;50.858;6.572;2022-08-19T02:29:50;37.77;;;32.13;;
4084;SDS011;2057;50.858;6.572;2022-08-19T02:32:16;51.03;;;33.77;;
4084;SDS011;2057;50.858;6.572;2022-08-19T02:34:46;49.40;;;32.67;;
4084;SDS011;2057;50.858;6.572;2022-08-19T02:37:12;40.00;;;32.70;;
4084;SDS011;2057;50.858;6.572;2022-08-19T02:39:57;44.10;;;33.60;;
4084;SDS011;2057;50.858;6.572;2022-08-19T02:42:23;47.87;;;36.37;;
4084;SDS011;2057;50.858;6.572;2022-08-19T02:44:48;36.80;;;32.30;;
4084;SDS011;2057;50.858;6.572;2022-08-19T02:47:14;48.03;;;35.00;;
4084;SDS011;2057;50.858;6.572;2022-08-19T02:49:40;39.50;;;34.50;;
4084;SDS011;2057;50.858;6.572;2022-08-19T02:52:05;41.50;;;36.20;;
4084;SDS011;2057;50.858;6.572;2022-08-19T02:54:31;44.20;;;33.53;;
4084;SDS011;2057;50.858;6.572;2022-08-19T02:56:56;44.73;;;35.03;;
4084;SDS011;2057;50.858;6.572;2022-08-19T02:59:22;35.77;;;30.57;;
4084;SDS011;2057;50.858;6.572;2022-08-19T03:01:47;42.40;;;28.47;;
4084;SDS011;2057;50.858;6.572;2022-08-19T03:04:13;43.57;;;27.43;;
4084;SDS011;2057;50.858;6.572;2022-08-19T03:06:42;33.53;;;29.07;;
4084;SDS011;2057;50.858;6.572;2022-08-19T03:09:10;33.13;;;28.77;;
4084;SDS011;2057;50.858;6.572;2022-08-19T03:11:36;34.90;;;30.77;;
4084;SDS011;2057;50.858;6.572;2022-08-19T03:14:03;40.80;;;31.97;;
4084;SDS011;2057;50.858;6.572;2022-08-19T03:16:31;50.83;;;34.47;;
4084;SDS011;2057;50.858;6.572;2022-08-19T03:18:59;39.93;;;33.00;;
4084;SDS011;2057;50.858;6.572;2022-08-19T03:21:27;42.33;;;33.07;;
4084;SDS011;2057;50.858;6.572;2022-08-19T03:23:56;44.47;;;34.73;;
4084;SDS011;2057;50.858;6.572;2022-08-19T03:26:22;45.13;;;35.23;;
4084;SDS011;2057;50.858;6.572;2022-08-19T03:28:48;48.07;;;37.20;;
4084;SDS011;2057;50.858;6.572;2022-08-19T03:31:16;45.07;;;37.20;;
4084;SDS011;2057;50.858;6.572;2022-08-19T03:33:44;47.90;;;37.90;;
4084;SDS011;2057;50.858;6.572;2022-08-19T03:36:18;47.90;;;36.50;;
4084;SDS011;2057;50.858;6.572;2022-08-19T03:38:49;55.03;;;37.50;;
4084;SDS011;2057;50.858;6.572;2022-08-19T03:41:21;49.37;;;39.10;;
4084;SDS011;2057;50.858;6.572;2022-08-19T03:43:48;52.33;;;40.27;;
4084;SDS011;2057;50.858;6.572;2022-08-19T03:46:19;52.20;;;42.50;;
4084;SDS011;2057;50.858;6.572;2022-08-19T03:48:46;54.93;;;41.47;;
4084;SDS011;2057;50.858;6.572;2022-08-19T03:51:22;51.37;;;40.10;;
4084;SDS011;2057;50.858;6.572;2022-08-19T03:53:49;48.00;;;41.03;;
4084;SDS011;2057;50.858;6.572;2022-08-19T03:56:15;48.07;;;39.93;;
4084;SDS011;2057;50.858;6.572;2022-08-19T03:58:40;54.90;;;40.83;;
4084;SDS011;2057;50.858;6.572;2022-08-19T04:01:11;46.07;;;38.50;;
4084;SDS011;2057;50.858;6.572;2022-08-19T04:03:39;50.17;;;39.97;;
4084;SDS011;2057;50.858;6.572;2022-08-19T04:06:11;51.07;;;41.13;;
4084;SDS011;2057;50.858;6.572;2022-08-19T04:08:39;48.00;;;39.20;;
4084;SDS011;2057;50.858;6.572;2022-08-19T04:11:06;52.43;;;41.30;;
4084;SDS011;2057;50.858;6.572;2022-08-19T04:13:33;55.20;;;41.30;;
4084;SDS011;2057;50.858;6.572;2022-08-19T04:15:59;50.60;;;40.50;;
4084;SDS011;2057;50.858;6.572;2022-08-19T04:18:24;48.63;;;38.80;;
4084;SDS011;2057;50.858;6.572;2022-08-19T04:20:50;52.20;;;40.70;;
4084;SDS011;2057;50.858;6.572;2022-08-19T04:23:17;55.03;;;42.47;;
4084;SDS011;2057;50.858;6.572;2022-08-19T04:25:43;48.43;;;41.33;;
4084;SDS011;2057;50.858;6.572;2022-08-19T04:28:10;50.43;;;41.53;;
4084;SDS011;2057;50.858;6.572;2022-08-19T04:30:38;49.60;;;42.27;;
4084;SDS011;2057;50.858;6.572;2022-08-19T04:33:07;59.30;;;39.87;;
4084;SDS011;2057;50.858;6.572;2022-08-19T04:35:37;47.50;;;39.97;;
4084;SDS011;2057;50.858;6.572;2022-08-19T04:38:07;54.20;;;39.87;;
4084;SDS011;2057;50.858;6.572;2022-08-19T04:40:33;47.73;;;40.03;;
4084;SDS011;2057;50.858;6.572;2022-08-19T04:43:17;75.53;;;43.60;;
4084;SDS011;2057;50.858;6.572;2022-08-19T04:45:43;55.37;;;42.10;;
4084;SDS011;2057;50.858;6.572;2022-08-19T04:48:10;51.20;;;41.60;;
4084;SDS011;2057;50.858;6.572;2022-08-19T04:50:38;54.10;;;41.20;;
4084;SDS011;2057;50.858;6.572;2022-08-19T04:53:06;47.23;;;40.57;;
4084;SDS011;2057;50.858;6.572;2022-08-19T04:55:31;47.63;;;40.80;;
4084;SDS011;2057;50.858;6.572;2022-08-19T04:57:57;53.03;;;40.93;;
4084;SDS011;2057;50.858;6.572;2022-08-19T05:00:23;52.83;;;41.17;;
4084;SDS011;2057;50.858;6.572;2022-08-19T05:02:49;57.83;;;42.17;;
4084;SDS011;2057;50.858;6.572;2022-08-19T05:05:14;62.43;;;43.40;;
4084;SDS011;2057;50.858;6.572;2022-08-19T05:07:40;50.30;;;40.90;;
4084;SDS011;2057;50.858;6.572;2022-08-19T05:10:06;53.60;;;44.57;;
4084;SDS011;2057;50.858;6.572;2022-08-19T05:12:32;65.47;;;44.60;;
4084;SDS011;2057;50.858;6.572;2022-08-19T05:14:58;61.97;;;47.10;;
4084;SDS011;2057;50.858;6.572;2022-08-19T05:17:24;66.40;;;46.97;;
4084;SDS011;2057;50.858;6.572;2022-08-19T05:19:51;66.73;;;47.10;;
4084;SDS011;2057;50.858;6.572;2022-08-19T05:22:35;59.17;;;40.20;;
4084;SDS011;2057;50.858;6.572;2022-08-19T05:25:12;58.63;;;43.53;;
4084;SDS011;2057;50.858;6.572;2022-08-19T05:27:40;66.13;;;49.20;;
4084;SDS011;2057;50.858;6.572;2022-08-19T05:30:07;62.17;;;48.03;;
4084;SDS011;2057;50.858;6.572;2022-08-19T05:32:33;73.37;;;48.20;;
4084;SDS011;2057;50.858;6.572;2022-08-19T05:34:59;66.27;;;46.33;;
4084;SDS011;2057;50.858;6.572;2022-08-19T05:37:24;62.33;;;50.33;;
4084;SDS011;2057;50.858;6.572;2022-08-19T05:39:52;75.70;;;52.63;;
4084;SDS011;2057;50.858;6.572;2022-08-19T05:42:19;73.80;;;51.43;;
4084;SDS011;2057;50.858;6.572;2022-08-19T05:44:45;70.60;;;51.80;;
4084;SDS011;2057;50.858;6.572;2022-08-19T05:47:12;73.80;;;52.80;;
4084;SDS011;2057;50.858;6.572;2022-08-19T05:52:15;72.27;;;50.90;;
4084;SDS011;2057;50.858;6.572;2022-08-19T05:54:41;69.03;;;52.60;;
4084;SDS011;2057;50.858;6.572;2022-08-19T05:57:08;77.57;;;52.17;;
4084;SDS011;2057;50.858;6.572;2022-08-19T05:59:34;76.70;;;55.30;;
4084;SDS011;2057;50.858;6.572;2022-08-19T06:02:03;86.30;;;58.10;;
4084;SDS011;2057;50.858;6.572;2022-08-19T06:04:29;86.17;;;55.17;;
4084;SDS011;2057;50.858;6.572;2022-08-19T06:06:55;77.80;;;54.93;;
4084;SDS011;2057;50.858;6.572;2022-08-19T06:09:21;77.60;;;53.17;;
4084;SDS011;2057;50.858;6.572;2022-08-19T06:11:48;85.43;;;56.40;;
4084;SDS011;2057;50.858;6.572;2022-08-19T06:14:20;93.83;;;56.00;;
4084;SDS011;2057;50.858;6.572;2022-08-19T06:16:48;77.53;;;53.83;;
4084;SDS011;2057;50.858;6.572;2022-08-19T06:19:17;83.40;;;58.03;;
4084;SDS011;2057;50.858;6.572;2022-08-19T06:21:45;76.23;;;53.67;;
4084;SDS011;2057;50.858;6.572;2022-08-19T06:24:13;75.80;;;56.50;;
4084;SDS011;2057;50.858;6.572;2022-08-19T06:26:41;83.63;;;58.87;;
4084;SDS011;2057;50.858;6.572;2022-08-19T06:29:09;76.30;;;55.40;;
4084;SDS011;2057;50.858;6.572;2022-08-19T06:31:37;88.73;;;54.37;;
4084;SDS011;2057;50.858;6.572;2022-08-19T06:34:07;86.50;;;57.03;;
4084;SDS011;2057;50.858;6.572;2022-08-19T06:36:34;88.93;;;53.43;;
4084;SDS011;2057;50.858;6.572;2022-08-19T06:39:03;91.07;;;59.10;;
4084;SDS011;2057;50.858;6.572;2022-08-19T06:41:31;83.87;;;59.87;;
4084;SDS011;2057;50.858;6.572;2022-08-19T06:44:00;90.23;;;57.87;;
4084;SDS011;2057;50.858;6.572;2022-08-19T06:46:25;90.20;;;57.57;;
4084;SDS011;2057;50.858;6.572;2022-08-19T06:48:51;91.43;;;60.10;;
4084;SDS011;2057;50.858;6.572;2022-08-19T06:51:18;115.80;;;66.00;;
4084;SDS011;2057;50.858;6.572;2022-08-19T06:53:44;105.10;;;69.80;;
4084;SDS011;2057;50.858;6.572;2022-08-19T06:56:14;102.83;;;67.47;;
4084;SDS011;2057;50.858;6.572;2022-08-19T06:58:41;112.60;;;67.47;;
4084;SDS011;2057;50.858;6.572;2022-08-19T07:01:07;105.13;;;67.23;;
4084;SDS011;2057;50.858;6.572;2022-08-19T07:03:33;111.70;;;68.67;;
4084;SDS011;2057;50.858;6.572;2022-08-19T07:06:07;125.03;;;71.90;;
4084;SDS011;2057;50.858;6.572;2022-08-19T07:08:37;113.43;;;69.50;;
4084;SDS011;2057;50.858;6.572;2022-08-19T07:11:06;128.03;;;69.87;;
4084;SDS011;2057;50.858;6.572;2022-08-19T07:13:33;117.53;;;72.33;;
4084;SDS011;2057;50.858;6.572;2022-08-19T07:16:08;118.77;;;72.23;;
4084;SDS011;2057;50.858;6.572;2022-08-19T07:18:39;118.67;;;69.40;;
4084;SDS011;2057;50.858;6.572;2022-08-19T07:21:09;118.47;;;69.83;;
4084;SDS011;2057;50.858;6.572;2022-08-19T07:23:36;120.70;;;73.33;;
4084;SDS011;2057;50.858;6.572;2022-08-19T07:26:09;120.90;;;72.33;;
4084;SDS011;2057;50.858;6.572;2022-08-19T07:28:42;114.43;;;68.47;;
4084;SDS011;2057;50.858;6.572;2022-08-19T07:31:10;119.47;;;73.07;;
4084;SDS011;2057;50.858;6.572;2022-08-19T07:33:38;111.10;;;69.07;;
4084;SDS011;2057;50.858;6.572;2022-08-19T07:36:04;119.90;;;70.30;;
4084;SDS011;2057;50.858;6.572;2022-08-19T07:38:32;120.33;;;72.60;;
4084;SDS011;2057;50.858;6.572;2022-08-19T07:40:58;96.87;;;64.30;;
4084;SDS011;2057;50.858;6.572;2022-08-19T07:43:24;108.13;;;69.83;;
4084;SDS011;2057;50.858;6.572;2022-08-19T07:45:51;103.87;;;64.07;;
4084;SDS011;2057;50.858;6.572;2022-08-19T07:48:25;101.03;;;64.97;;
4084;SDS011;2057;50.858;6.572;2022-08-19T07:50:53;97.90;;;60.73;;
4084;SDS011;2057;50.858;6.572;2022-08-19T07:53:20;89.03;;;58.10;;
4084;SDS011;2057;50.858;6.572;2022-08-19T07:55:46;84.17;;;56.17;;
4084;SDS011;2057;50.858;6.572;2022-08-19T07:58:13;71.57;;;46.20;;
4084;SDS011;2057;50.858;6.572;2022-08-19T08:00:41;59.73;;;40.70;;
4084;SDS011;2057;50.858;6.572;2022-08-19T08:03:07;65.57;;;36.60;;
4084;SDS011;2057;50.858;6.572;2022-08-19T08:05:33;59.63;;;37.77;;
4084;SDS011;2057;50.858;6.572;2022-08-19T08:08:37;62.07;;;34.30;;
4084;SDS011;2057;50.858;6.572;2022-08-19T08:11:21;52.93;;;31.27;;
4084;SDS011;2057;50.858;6.572;2022-08-19T08:13:47;45.50;;;31.00;;
4084;SDS011;2057;50.858;6.572;2022-08-19T08:16:14;41.80;;;29.70;;
4084;SDS011;2057;50.858;6.572;2022-08-19T08:18:39;46.47;;;34.10;;
4084;SDS011;2057;50.858;6.572;2022-08-19T08:21:07;50.90;;;36.07;;
4084;SDS011;2057;50.858;6.572;2022-08-19T08:23:33;45.43;;;34.60;;
4084;SDS011;2057;50.858;6.572;2022-08-19T08:25:58;35.00;;;23.97;;
4084;SDS011;2057;50.858;6.572;2022-08-19T08:28:24;34.33;;;24.80;;
4084;SDS011;2057;50.858;6.572;2022-08-19T08:30:52;29.10;;;21.90;;
4084;SDS011;2057;50.858;6.572;2022-08-19T08:33:18;27.27;;;20.60;;
4084;SDS011;2057;50.858;6.572;2022-08-19T08:35:46;27.67;;;19.17;;
4084;SDS011;2057;50.858;6.572;2022-08-19T08:38:12;24.73;;;16.40;;
4084;SDS011;2057;50.858;6.572;2022-08-19T08:43:27;26.60;;;17.90;;
4084;SDS011;2057;50.858;6.572;2022-08-19T08:46:10;27.03;;;18.07;;
4084;SDS011;2057;50.858;6.572;2022-08-19T08:48:47;30.87;;;18.10;;
4084;SDS011;2057;50.858;6.572;2022-08-19T08:51:20;29.23;;;20.57;;
4084;SDS011;2057;50.858;6.572;2022-08-19T08:53:51;27.67;;;19.50;;
4084;SDS011;2057;50.858;6.572;2022-08-19T08:56:18;33.03;;;21.97;;
4084;SDS011;2057;50.858;6.572;2022-08-19T09:01:22;31.70;;;22.43;;
4084;SDS011;2057;50.858;6.572;2022-08-19T09:03:48;40.33;;;23.80;;
4084;SDS011;2057;50.858;6.572;2022-08-19T09:14:12;41.47;;;28.57;;
4084;SDS011;2057;50.858;6.572;2022-08-19T09:16:56;39.50;;;28.63;;
4084;SDS011;2057;50.858;6.572;2022-08-19T09:19:23;49.97;;;30.40;;
4084;SDS011;2057;50.858;6.572;2022-08-19T09:21:48;45.30;;;32.80;;
4084;SDS011;2057;50.858;6.572;2022-08-19T09:24:15;64.17;;;36.57;;
4084;SDS011;2057;50.858;6.572;2022-08-19T09:26:41;63.63;;;36.93;;
4084;SDS011;2057;50.858;6.572;2022-08-19T09:29:08;60.70;;;34.37;;
4084;SDS011;2057;50.858;6.572;2022-08-19T09:31:35;47.17;;;37.13;;
4084;SDS011;2057;50.858;6.572;2022-08-19T09:34:01;45.63;;;33.87;;
4084;SDS011;2057;50.858;6.572;2022-08-19T09:36:29;48.87;;;34.37;;
4084;SDS011;2057;50.858;6.572;2022-08-19T09:38:57;42.47;;;32.70;;
4084;SDS011;2057;50.858;6.572;2022-08-19T09:41:25;42.80;;;30.13;;
4084;SDS011;2057;50.858;6.572;2022-08-19T09:43:51;44.03;;;29.20;;
4084;SDS011;2057;50.858;6.572;2022-08-19T09:46:19;43.87;;;30.70;;
4084;SDS011;2057;50.858;6.572;2022-08-19T09:48:48;47.63;;;28.43;;
4084;SDS011;2057;50.858;6.572;2022-08-19T09:51:20;41.17;;;31.03;;
4084;SDS011;2057;50.858;6.572;2022-08-19T09:53:48;42.93;;;33.70;;
4084;SDS011;2057;50.858;6.572;2022-08-19T09:56:21;41.73;;;31.10;;
4084;SDS011;2057;50.858;6.572;2022-08-19T09:58:47;34.40;;;26.87;;
4084;SDS011;2057;50.858;6.572;2022-08-19T10:01:17;43.73;;;31.97;;
4084;SDS011;2057;50.858;6.572;2022-08-19T10:03:46;30.20;;;24.23;;
4084;SDS011;2057;50.858;6.572;2022-08-19T10:06:14;37.97;;;27.33;;
4084;SDS011;2057;50.858;6.572;2022-08-19T10:08:39;38.70;;;27.10;;
4084;SDS011;2057;50.858;6.572;2022-08-19T10:11:05;41.07;;;30.27;;
4084;SDS011;2057;50.858;6.572;2022-08-19T10:13:31;47.60;;;30.33;;
4084;SDS011;2057;50.858;6.572;2022-08-19T10:16:04;33.90;;;26.47;;
4084;SDS011;2057;50.858;6.572;2022-08-19T10:18:32;44.93;;;31.43;;
4084;SDS011;2057;50.858;6.572;2022-08-19T10:21:03;38.37;;;29.70;;
4084;SDS011;2057;50.858;6.572;2022-08-19T10:23:33;42.20;;;32.13;;
4084;SDS011;2057;50.858;6.572;2022-08-19T10:25:59;48.00;;;34.60;;
4084;SDS011;2057;50.858;6.572;2022-08-19T10:28:25;47.60;;;36.83;;
4084;SDS011;2057;50.858;6.572;2022-08-19T10:30:51;57.63;;;35.00;;
4084;SDS011;2057;50.858;6.572;2022-08-19T10:33:16;43.97;;;32.23;;
4084;SDS011;2057;50.858;6.572;2022-08-19T10:35:42;45.00;;;29.53;;
4084;SDS011;2057;50.858;6.572;2022-08-19T10:38:07;46.60;;;37.40;;
4084;SDS011;2057;50.858;6.572;2022-08-19T10:40:32;53.13;;;37.03;;
4084;SDS011;2057;50.858;6.572;2022-08-19T10:42:58;37.30;;;32.50;;
4084;SDS011;2057;50.858;6.572;2022-08-19T10:45:23;43.10;;;29.47;;
4084;SDS011;2057;50.858;6.572;2022-08-19T10:47:51;40.83;;;31.27;;
4084;SDS011;2057;50.858;6.572;2022-08-19T10:50:17;43.83;;;32.50;;
4084;SDS011;2057;50.858;6.572;2022-08-19T10:53:05;35.90;;;30.17;;
4084;SDS011;2057;50.858;6.572;2022-08-19T10:55:34;39.97;;;31.23;;
4084;SDS011;2057;50.858;6.572;2022-08-19T10:58:19;44.50;;;33.03;;
4084;SDS011;2057;50.858;6.572;2022-08-19T11:01:05;51.73;;;31.20;;
4084;SDS011;2057;50.858;6.572;2022-08-19T11:03:30;43.67;;;32.10;;
4084;SDS011;2057;50.858;6.572;2022-08-19T11:06:04;43.53;;;31.63;;
4084;SDS011;2057;50.858;6.572;2022-08-19T11:08:32;43.83;;;31.20;;
4084;SDS011;2057;50.858;6.572;2022-08-19T11:10:59;49.43;;;31.97;;
4084;SDS011;2057;50.858;6.572;2022-08-19T11:13:31;39.73;;;30.87;;
4084;SDS011;2057;50.858;6.572;2022-08-19T11:16:01;48.40;;;37.20;;
4084;SDS011;2057;50.858;6.572;2022-08-19T11:18:39;53.73;;;34.10;;
4084;SDS011;2057;50.858;6.572;2022-08-19T11:21:11;58.50;;;34.17;;
4084;SDS011;2057;50.858;6.572;2022-08-19T11:23:46;47.37;;;33.73;;
4084;SDS011;2057;50.858;6.572;2022-08-19T11:26:14;43.00;;;30.40;;
4084;SDS011;2057;50.858;6.572;2022-08-19T11:28:40;41.93;;;33.47;;
4084;SDS011;2057;50.858;6.572;2022-08-19T11:31:13;41.93;;;32.57;;
4084;SDS011;2057;50.858;6.572;2022-08-19T11:33:45;47.33;;;31.27;;
4084;SDS011;2057;50.858;6.572;2022-08-19T11:36:11;41.23;;;29.60;;
4084;SDS011;2057;50.858;6.572;2022-08-19T11:38:37;39.67;;;28.93;;
4084;SDS011;2057;50.858;6.572;2022-08-19T11:41:04;39.57;;;27.43;;
4084;SDS011;2057;50.858;6.572;2022-08-19T11:43:32;34.43;;;27.00;;
4084;SDS011;2057;50.858;6.572;2022-08-19T11:45:58;33.33;;;26.10;;
4084;SDS011;2057;50.858;6.572;2022-08-19T11:48:24;39.63;;;28.33;;
4084;SDS011;2057;50.858;6.572;2022-08-19T11:50:53;38.63;;;29.53;;
4084;SDS011;2057;50.858;6.572;2022-08-19T11:53:22;36.03;;;28.20;;
4084;SDS011;2057;50.858;6.572;2022-08-19T11:55:48;33.80;;;25.37;;
4084;SDS011;2057;50.858;6.572;2022-08-19T11:58:16;30.80;;;23.43;;
4084;SDS011;2057;50.858;6.572;2022-08-19T12:00:42;31.97;;;22.07;;
4084;SDS011;2057;50.858;6.572;2022-08-19T12:03:10;26.07;;;21.37;;
4084;SDS011;2057;50.858;6.572;2022-08-19T12:05:36;25.23;;;16.70;;
4084;SDS011;2057;50.858;6.572;2022-08-19T12:08:03;27.20;;;19.30;;
4084;SDS011;2057;50.858;6.572;2022-08-19T12:10:28;29.50;;;22.70;;
4084;SDS011;2057;50.858;6.572;2022-08-19T12:12:54;33.83;;;21.37;;
4084;SDS011;2057;50.858;6.572;2022-08-19T12:15:19;30.23;;;21.70;;
4084;SDS011;2057;50.858;6.572;2022-08-19T12:17:45;37.73;;;21.83;;
4084;SDS011;2057;50.858;6.572;2022-08-19T12:20:11;23.33;;;18.93;;
4084;SDS011;2057;50.858;6.572;2022-08-19T12:22:38;24.37;;;18.03;;
4084;SDS011;2057;50.858;6.572;2022-08-19T12:25:06;38.37;;;26.10;;
4084;SDS011;2057;50.858;6.572;2022-08-19T12:27:32;26.50;;;21.43;;
4084;SDS011;2057;50.858;6.572;2022-08-19T12:29:58;34.20;;;21.97;;
4084;SDS011;2057;50.858;6.572;2022-08-19T12:32:26;34.30;;;23.53;;
4084;SDS011;2057;50.858;6.572;2022-08-19T12:34:51;28.97;;;20.90;;
4084;SDS011;2057;50.858;6.572;2022-08-19T12:37:17;33.27;;;24.77;;
4084;SDS011;2057;50.858;6.572;2022-08-19T12:39:43;29.80;;;20.27;;
4084;SDS011;2057;50.858;6.572;2022-08-19T12:42:09;28.47;;;21.17;;
4084;SDS011;2057;50.858;6.572;2022-08-19T12:44:37;24.23;;;19.20;;
4084;SDS011;2057;50.858;6.572;2022-08-19T12:47:04;26.17;;;17.27;;
4084;SDS011;2057;50.858;6.572;2022-08-19T12:49:31;25.73;;;18.50;;
4084;SDS011;2057;50.858;6.572;2022-08-19T12:52:01;23.27;;;17.60;;
4084;SDS011;2057;50.858;6.572;2022-08-19T12:54:28;25.10;;;20.30;;
4084;SDS011;2057;50.858;6.572;2022-08-19T12:56:55;22.70;;;18.17;;
4084;SDS011;2057;50.858;6.572;2022-08-19T12:59:21;28.40;;;17.33;;
4084;SDS011;2057;50.858;6.572;2022-08-19T13:01:47;29.93;;;18.87;;
4084;SDS011;2057;50.858;6.572;2022-08-19T13:04:12;27.40;;;18.80;;
4084;SDS011;2057;50.858;6.572;2022-08-19T13:06:37;31.50;;;18.10;;
4084;SDS011;2057;50.858;6.572;2022-08-19T13:09:04;27.33;;;18.40;;
4084;SDS011;2057;50.858;6.572;2022-08-19T13:11:30;25.10;;;15.13;;
4084;SDS011;2057;50.858;6.572;2022-08-19T13:13:58;21.60;;;17.83;;
4084;SDS011;2057;50.858;6.572;2022-08-19T13:16:25;20.60;;;16.67;;
4084;SDS011;2057;50.858;6.572;2022-08-19T13:18:52;24.20;;;19.20;;
4084;SDS011;2057;50.858;6.572;2022-08-19T13:21:20;29.13;;;20.73;;
4084;SDS011;2057;50.858;6.572;2022-08-19T13:23:49;34.00;;;21.40;;
4084;SDS011;2057;50.858;6.572;2022-08-19T13:26:16;30.20;;;18.93;;
4084;SDS011;2057;50.858;6.572;2022-08-19T13:28:42;24.73;;;16.23;;
4084;SDS011;2057;50.858;6.572;2022-08-19T13:31:27;20.30;;;14.13;;
4084;SDS011;2057;50.858;6.572;2022-08-19T13:34:13;22.70;;;11.83;;
4084;SDS011;2057;50.858;6.572;2022-08-19T13:36:40;18.00;;;11.73;;
4084;SDS011;2057;50.858;6.572;2022-08-19T13:39:06;16.80;;;10.93;;
4084;SDS011;2057;50.858;6.572;2022-08-19T13:41:35;19.40;;;10.87;;
4084;SDS011;2057;50.858;6.572;2022-08-19T13:44:02;14.13;;;10.90;;
4084;SDS011;2057;50.858;6.572;2022-08-19T13:46:28;16.40;;;13.30;;
4084;SDS011;2057;50.858;6.572;2022-08-19T13:48:55;16.73;;;9.80;;
4084;SDS011;2057;50.858;6.572;2022-08-19T13:51:21;18.33;;;11.13;;
4084;SDS011;2057;50.858;6.572;2022-08-19T13:53:47;13.17;;;7.07;;
4084;SDS011;2057;50.858;6.572;2022-08-19T13:56:13;17.47;;;7.83;;
4084;SDS011;2057;50.858;6.572;2022-08-19T13:58:41;13.87;;;5.63;;
4084;SDS011;2057;50.858;6.572;2022-08-19T14:01:07;11.90;;;4.67;;
4084;SDS011;2057;50.858;6.572;2022-08-19T14:03:34;7.33;;;4.00;;
4084;SDS011;2057;50.858;6.572;2022-08-19T14:05:59;8.80;;;4.97;;
4084;SDS011;2057;50.858;6.572;2022-08-19T14:08:26;12.53;;;5.87;;
4084;SDS011;2057;50.858;6.572;2022-08-19T14:10:53;7.93;;;4.97;;
4084;SDS011;2057;50.858;6.572;2022-08-19T14:13:20;5.67;;;4.40;;
4084;SDS011;2057;50.858;6.572;2022-08-19T14:15:48;14.40;;;4.80;;
4084;SDS011;2057;50.858;6.572;2022-08-19T14:18:15;9.97;;;4.63;;
4084;SDS011;2057;50.858;6.572;2022-08-19T14:20:42;10.23;;;3.80;;
4084;SDS011;2057;50.858;6.572;2022-08-19T14:23:08;12.13;;;4.33;;
4084;SDS011;2057;50.858;6.572;2022-08-19T14:25:34;8.20;;;4.27;;
4084;SDS011;2057;50.858;6.572;2022-08-19T14:28:00;8.47;;;4.40;;
4084;SDS011;2057;50.858;6.572;2022-08-19T14:30:27;14.40;;;3.60;;
4084;SDS011;2057;50.858;6.572;2022-08-19T14:32:56;4.27;;;3.53;;
4084;SDS011;2057;50.858;6.572;2022-08-19T14:35:23;9.33;;;4.10;;
4084;SDS011;2057;50.858;6.572;2022-08-19T14:37:49;6.63;;;4.13;;
4084;SDS011;2057;50.858;6.572;2022-08-19T14:40:16;9.70;;;4.60;;
4084;SDS011;2057;50.858;6.572;2022-08-19T14:42:46;8.00;;;4.37;;
4084;SDS011;2057;50.858;6.572;2022-08-19T14:45:13;6.43;;;3.57;;
4084;SDS011;2057;50.858;6.572;2022-08-19T14:47:39;5.70;;;3.50;;
4084;SDS011;2057;50.858;6.572;2022-08-19T14:50:06;5.67;;;3.50;;
4084;SDS011;2057;50.858;6.572;2022-08-19T14:52:33;4.93;;;3.40;;
4084;SDS011;2057;50.858;6.572;2022-08-19T14:54:59;4.53;;;3.40;;
4084;SDS011;2057;50.858;6.572;2022-08-19T14:57:24;8.13;;;4.33;;
4084;SDS011;2057;50.858;6.572;2022-08-19T14:59:50;6.00;;;3.90;;
4084;SDS011;2057;50.858;6.572;2022-08-19T15:02:15;6.10;;;3.33;;
4084;SDS011;2057;50.858;6.572;2022-08-19T15:04:41;5.23;;;3.10;;
4084;SDS011;2057;50.858;6.572;2022-08-19T15:07:06;7.23;;;3.70;;
4084;SDS011;2057;50.858;6.572;2022-08-19T15:09:32;8.07;;;3.80;;